Airport Name : Maya Maya

Other Name : Brazzaville

ICAO : FCBB

IATA : BZV

FAA :

Latitude : -4.2517

Longitude : 15.253031

Country : Republic of the Congo

Local Date and Time : 8/22/2018 6:46:00 AM

 

TAF (Terminal Aerodrome Forecast)

TAF FCBB 220500Z 2206/2312 26006KT 8000 SCT018

 

METAR (METeorological Aerodrome Report)

FCBB 220500Z 26004KT 8000 FEW010 21/18 Q1016 NOSIG

FCBB 220400Z 26002KT 8000 NSC 20/18 Q1016 NOSIG

FCBB 220300Z 28002KT 8000 NSC 21/18 Q1015 NOSIG

FCBB 220200Z 28003KT 8000 NSC 22/18 Q1015 NOSIG